Time;durP1;ratioP1;P1;durP2;ratioP2;P2;SDS_P1;SDS_P2;PMS_P1;PMS_P2;Temp;Humidity;BMP_temperature;BMP_pressure;BME280_temperature;BME280_humidity;BME280_pressure;Samples;Min_cycle;Max_cycle;Signal;HPM_P1;HPM_P2
2021/11/29 00:01:12;;;;;;;20.50;10.50;;;;;;;1.80;78.37;94869.61;1819425;77;25743;-85
2021/11/29 00:03:38;;;;;;;18.98;10.58;;;;;;;1.77;78.38;94880.16;1819331;77;25895;-86
2021/11/29 00:06:06;;;;;;;23.42;11.68;;;;;;;1.78;78.44;94889.77;1819580;77;26108;-86
2021/11/29 00:08:32;;;;;;;21.90;10.63;;;;;;;1.74;78.33;94891.23;1819463;78;25621;-85
2021/11/29 00:10:59;;;;;;;20.10;10.45;;;;;;;1.74;78.40;94899.20;1819959;77;28031;-85
2021/11/29 00:13:25;;;;;;;16.48;9.18;;;;;;;1.78;78.44;94894.27;1819680;78;25625;-86
2021/11/29 00:15:52;;;;;;;13.88;8.68;;;;;;;1.83;78.44;94889.61;1819356;77;25826;-86
2021/11/29 00:18:19;;;;;;;15.93;8.70;;;;;;;1.86;78.40;94885.19;1819625;77;26888;-86
2021/11/29 00:20:46;;;;;;;15.45;9.53;;;;;;;1.87;78.35;94879.66;1819696;77;25700;-86
2021/11/29 00:23:14;;;;;;;16.00;9.08;;;;;;;1.88;78.32;94864.52;1819972;77;27400;-86
2021/11/29 00:25:42;;;;;;;14.20;8.80;;;;;;;1.85;78.27;94863.61;1819367;77;25701;-86
2021/11/29 00:28:10;;;;;;;11.93;7.78;;;;;;;1.89;78.29;94864.81;1819718;77;26428;-86
2021/11/29 00:30:38;;;;;;;13.95;7.30;;;;;;;1.90;78.24;94871.76;1819884;77;25943;-86
2021/11/29 00:33:06;;;;;;;12.00;7.03;;;;;;;1.84;78.18;94885.92;1819955;77;25625;-85
2021/11/29 00:35:33;;;;;;;13.18;8.10;;;;;;;1.79;78.17;94900.70;1819858;77;27357;-86
2021/11/29 00:37:59;;;;;;;11.50;7.45;;;;;;;1.78;78.13;94904.39;1819812;78;25857;-85
2021/11/29 00:40:27;;;;;;;12.05;7.55;;;;;;;1.78;78.21;94903.06;1807966;78;25792;-86
2021/11/29 00:42:53;;;;;;;13.58;7.72;;;;;;;1.80;78.20;94907.66;1796468;78;26285;-85
2021/11/29 00:45:20;;;;;;;11.60;6.97;;;;;;;1.79;78.22;94907.36;1820294;77;25699;-86
2021/11/29 00:47:46;;;;;;;13.00;7.55;;;;;;;1.79;78.23;94918.00;1820240;77;27363;-86
2021/11/29 00:50:13;;;;;;;12.03;7.75;;;;;;;1.80;78.25;94924.95;1820128;77;25683;-86
2021/11/29 00:52:42;;;;;;;11.93;7.83;;;;;;;1.80;78.23;94926.28;1820117;77;25723;-86
2021/11/29 00:55:10;;;;;;;10.70;6.33;;;;;;;1.79;78.21;94933.14;1820201;77;26087;-86
2021/11/29 00:57:37;;;;;;;13.35;7.35;;;;;;;1.75;78.08;94928.77;1820194;77;25703;-86
2021/11/29 01:00:12;;;;;;;11.33;6.80;;;;;;;1.69;78.10;94933.60;1820298;77;27374;-86
2021/11/29 01:02:39;;;;;;;13.08;8.00;;;;;;;1.70;78.25;94913.14;1817790;77;26159;-85
2021/11/29 01:05:07;;;;;;;12.13;7.42;;;;;;;1.71;78.25;94910.27;1819742;77;25791;-85
2021/11/29 01:07:33;;;;;;;13.88;8.05;;;;;;;1.73;78.29;94908.21;1792719;78;26061;-85
2021/11/29 01:10:00;;;;;;;11.95;7.50;;;;;;;1.74;78.25;94916.49;1820270;77;25827;-85
2021/11/29 01:12:26;;;;;;;12.33;7.20;;;;;;;1.63;78.09;94913.20;1820205;77;27419;-85
2021/11/29 01:14:53;;;;;;;11.75;7.42;;;;;;;1.54;78.08;94916.36;1819566;77;25880;-85
2021/11/29 01:17:20;;;;;;;15.00;8.28;;;;;;;1.51;78.23;94916.78;1820053;77;25766;-85
2021/11/29 01:19:46;;;;;;;12.37;7.15;;;;;;;1.47;78.27;94923.03;1820111;77;26659;-85
2021/11/29 01:22:13;;;;;;;12.33;7.70;;;;;;;1.47;78.31;94929.68;1820155;78;25782;-85
2021/11/29 01:24:40;;;;;;;15.13;8.50;;;;;;;1.48;78.37;94927.32;1820162;77;27353;-85
2021/11/29 01:27:06;;;;;;;14.23;8.48;;;;;;;1.48;78.39;94927.32;1820160;77;25759;-85
2021/11/29 01:29:33;;;;;;;14.68;8.48;;;;;;;1.48;78.43;94924.66;1820382;77;25712;-85
2021/11/29 01:32:00;;;;;;;15.08;9.13;;;;;;;1.48;78.41;94924.66;1788310;78;26224;-85
2021/11/29 01:34:26;;;;;;;14.38;8.53;;;;;;;1.43;78.36;94924.00;1816062;77;25751;-85
2021/11/29 01:36:53;;;;;;;13.53;8.35;;;;;;;1.40;78.41;94926.27;1819441;77;27965;-84
2021/11/29 01:39:20;;;;;;;16.60;9.20;;;;;;;1.38;78.44;94930.97;1819776;77;25757;-84
2021/11/29 01:41:49;;;;;;;12.82;8.63;;;;;;;1.37;78.41;94939.46;1818438;77;25707;-85
2021/11/29 01:44:16;;;;;;;14.33;9.03;;;;;;;1.33;78.43;94946.73;1818012;78;26902;-84
2021/11/29 01:46:45;;;;;;;14.23;9.05;;;;;;;1.33;78.51;94950.72;1817819;78;26437;-84
2021/11/29 01:49:12;;;;;;;18.48;9.78;;;;;;;1.35;78.55;94953.98;1817808;77;28678;-85
2021/11/29 01:51:39;;;;;;;16.40;9.95;;;;;;;1.34;78.53;94953.17;1817649;77;25799;-84
2021/11/29 01:54:06;;;;;;;19.00;10.72;;;;;;;1.33;78.55;94955.53;1817911;77;25773;-84
2021/11/29 01:56:32;;;;;;;21.82;10.98;;;;;;;1.33;78.55;94956.04;1817873;77;26472;-83
2021/11/29 01:58:59;;;;;;;18.77;11.43;;;;;;;1.29;78.54;94958.33;1817361;77;25857;-84
2021/11/29 02:01:27;;;;;;;18.40;10.48;;;;;;;1.28;78.61;94950.56;1817699;77;27396;-83
2021/11/29 02:03:57;;;;;;;17.70;9.68;;;;;;;1.20;78.57;94949.50;1817189;77;25613;-85
2021/11/29 02:06:29;;;;;;;17.45;10.10;;;;;;;1.07;78.79;94950.38;1817800;78;25874;-84
2021/11/29 02:08:56;;;;;;;19.55;11.35;;;;;;;0.98;78.86;94946.31;1817399;77;26945;-84
2021/11/29 02:11:25;;;;;;;20.70;10.85;;;;;;;0.96;79.03;94937.77;1817905;78;25816;-84
2021/11/29 02:13:59;;;;;;;21.93;10.90;;;;;;;0.97;79.10;94937.53;1817620;77;27479;-84
2021/11/29 02:16:26;;;;;;;18.40;10.85;;;;;;;0.96;79.15;94941.24;1817458;77;25800;-83
2021/11/29 02:18:54;;;;;;;16.50;10.20;;;;;;;0.96;79.21;94938.59;1803957;78;25787;-84
2021/11/29 02:21:30;;;;;;;21.95;11.00;;;;;;;0.98;79.25;94939.16;1795643;78;26075;-84
2021/11/29 02:24:02;;;;;;;18.00;10.23;;;;;;;0.95;79.21;94940.94;1806279;78;25723;-84
2021/11/29 02:26:31;;;;;;;17.70;10.32;;;;;;;0.99;79.31;94939.47;1806525;78;27389;-83
2021/11/29 02:29:09;;;;;;;18.17;10.18;;;;;;;1.02;79.31;94939.05;1806353;78;25770;-83
2021/11/29 02:31:39;;;;;;;19.37;10.93;;;;;;;1.07;79.32;94937.91;1817550;78;25689;-83
2021/11/29 02:34:19;;;;;;;16.73;9.23;;;;;;;1.11;79.31;94940.13;1795006;77;26896;-83
2021/11/29 02:36:47;;;;;;;17.90;10.48;;;;;;;1.09;79.28;94942.48;1817260;77;25989;-83
2021/11/29 02:39:15;;;;;;;17.77;9.78;;;;;;;1.05;79.26;94949.77;1801043;78;27406;-83
2021/11/29 02:41:43;;;;;;;17.48;9.08;;;;;;;1.07;79.31;94955.70;1785986;78;25813;-84
2021/11/29 02:44:10;;;;;;;19.62;10.23;;;;;;;1.11;79.27;94957.39;1808071;77;25648;-83
2021/11/29 02:46:36;;;;;;;17.85;9.95;;;;;;;1.07;79.18;94952.53;1816413;77;26050;-84
2021/11/29 02:49:06;;;;;;;18.55;10.53;;;;;;;1.10;79.21;94957.91;1796118;77;25639;-84
2021/11/29 02:54:11;;;;;;;19.67;10.43;;;;;;;1.15;79.17;94959.94;1700402;83;25953;-80
2021/11/29 02:56:40;;;;;;;16.42;9.43;;;;;;;1.18;79.20;94954.20;1699549;82;25731;-81
2021/11/29 02:59:15;;;;;;;18.60;10.30;;;;;;;1.14;79.15;94963.62;1675496;84;26047;-81
2021/11/29 03:01:44;;;;;;;20.02;10.45;;;;;;;1.18;79.17;94966.16;1661397;85;26345;-81
2021/11/29 03:04:12;;;;;;;17.45;9.58;;;;;;;1.22;79.18;94971.34;1671498;85;27329;-81
2021/11/29 03:06:38;;;;;;;19.35;10.08;;;;;;;1.21;79.12;94971.06;1700083;84;25287;-81
2021/11/29 03:09:07;;;;;;;16.95;9.10;;;;;;;1.15;79.07;94969.23;1700259;84;26365;-81
2021/11/29 03:11:34;;;;;;;18.73;9.43;;;;;;;1.12;79.12;94978.44;1668647;84;26792;-81
2021/11/29 03:14:01;;;;;;;18.12;9.73;;;;;;;1.14;79.19;94972.92;1700026;83;25800;-81
2021/11/29 03:16:28;;;;;;;15.00;8.50;;;;;;;1.17;79.21;94974.65;1699888;83;27562;-81
2021/11/29 03:18:55;;;;;;;15.80;9.20;;;;;;;1.14;79.14;94975.06;1699966;83;26564;-81
2021/11/29 03:21:24;;;;;;;17.30;9.35;;;;;;;1.08;79.10;94971.94;1700116;83;26379;-81
2021/11/29 03:23:56;;;;;;;17.52;10.08;;;;;;;1.11;79.18;94974.66;1668552;84;26061;-81
2021/11/29 03:26:24;;;;;;;20.72;11.22;;;;;;;1.06;79.12;94974.80;1700284;83;25768;-81
2021/11/29 03:28:55;;;;;;;23.12;11.80;;;;;;;1.06;79.22;94973.48;1700139;83;27365;-81
2021/11/29 03:31:24;;;;;;;22.67;12.37;;;;;;;1.11;79.27;94975.48;1700002;83;25732;-80
2021/11/29 03:33:55;;;;;;;29.10;13.43;;;;;;;1.15;79.30;94985.18;1699984;83;25811;-81
2021/11/29 03:36:21;;;;;;;28.00;12.78;;;;;;;1.20;79.28;94982.72;1699982;83;26000;-81
2021/11/29 03:38:49;;;;;;;16.75;9.95;;;;;;;1.24;79.19;94980.73;1700174;83;25840;-82
2021/11/29 03:41:15;;;;;;;18.77;10.80;;;;;;;1.25;79.07;94976.23;1700100;83;27391;-81
2021/11/29 03:43:42;;;;;;;20.62;10.80;;;;;;;1.28;79.04;94966.52;1700097;83;25729;-80
2021/11/29 03:46:08;;;;;;;18.67;10.08;;;;;;;1.30;79.04;94965.80;1700231;83;25247;-81
2021/11/29 03:48:35;;;;;;;19.12;10.43;;;;;;;1.30;78.96;94965.28;1700273;83;26398;-81
2021/11/29 03:51:03;;;;;;;17.35;10.30;;;;;;;1.25;78.92;94961.61;1700261;83;25276;-81
2021/11/29 03:53:30;;;;;;;17.95;10.43;;;;;;;1.24;78.99;94965.30;1688731;83;27542;-81
2021/11/29 03:55:57;;;;;;;19.90;11.12;;;;;;;1.20;78.99;94965.44;1674020;84;25812;-82
2021/11/29 03:58:24;;;;;;;20.97;11.18;;;;;;;1.20;79.09;94966.77;1674163;84;25716;-82
2021/11/29 04:00:52;;;;;;;20.97;12.55;;;;;;;1.25;79.20;94965.60;1674072;84;26650;-81
2021/11/29 04:03:19;;;;;;;18.62;11.60;;;;;;;1.28;79.15;94965.19;1674091;84;25852;-83
2021/11/29 04:05:46;;;;;;;23.57;12.13;;;;;;;1.28;79.10;94955.37;1674205;84;27388;-82
2021/11/29 04:08:13;;;;;;;19.57;11.48;;;;;;;1.28;79.08;94958.54;1674054;84;25835;-82
2021/11/29 04:10:40;;;;;;;18.85;10.55;;;;;;;1.30;79.11;94959.15;1674034;84;25783;-82
2021/11/29 04:13:07;;;;;;;18.07;10.70;;;;;;;1.33;79.05;94962.69;1674165;84;25990;-82
2021/11/29 04:15:34;;;;;;;18.73;11.05;;;;;;;1.31;78.95;94959.45;1674068;84;25818;-82
2021/11/29 04:18:01;;;;;;;15.63;9.85;;;;;;;1.30;79.04;94958.64;1674200;85;27434;-82
2021/11/29 04:20:28;;;;;;;18.52;11.80;;;;;;;1.30;79.01;94962.63;1686975;84;25747;-83
2021/11/29 04:22:54;;;;;;;15.30;9.73;;;;;;;1.29;79.00;94975.61;1686658;84;25685;-82
2021/11/29 04:25:25;;;;;;;17.73;10.78;;;;;;;1.28;79.02;94989.10;1673796;84;26285;-81
2021/11/29 04:27:53;;;;;;;15.03;9.73;;;;;;;1.28;79.04;94987.77;1687008;84;25782;-82
2021/11/29 04:30:24;;;;;;;15.93;9.60;;;;;;;1.32;79.00;94991.65;1686962;84;27387;-82
2021/11/29 04:32:53;;;;;;;17.90;9.58;;;;;;;1.32;78.85;94996.97;1674068;84;25807;-83
2021/11/29 04:35:21;;;;;;;15.45;9.53;;;;;;;1.31;78.83;94992.67;1674116;84;25847;-83
2021/11/29 04:37:47;;;;;;;16.02;10.25;;;;;;;1.23;78.80;94992.38;1674011;84;26010;-82
2021/11/29 04:40:14;;;;;;;17.82;10.30;;;;;;;1.24;78.91;94997.19;1687064;84;25690;-82
2021/11/29 04:42:41;;;;;;;19.60;11.18;;;;;;;1.27;79.01;94991.45;1674025;84;27632;-82
2021/11/29 04:45:09;;;;;;;18.80;10.78;;;;;;;1.30;78.99;94992.37;1674101;84;25749;-82
2021/11/29 04:47:37;;;;;;;15.98;9.60;;;;;;;1.32;78.92;94983.67;1674044;85;25803;-82
2021/11/29 04:50:05;;;;;;;16.15;8.45;;;;;;;1.30;78.91;94984.39;1686871;84;25994;-83
2021/11/29 04:52:32;;;;;;;13.75;8.53;;;;;;;1.28;78.77;94982.45;1687572;83;25285;-82
2021/11/29 04:54:59;;;;;;;13.75;8.78;;;;;;;1.28;78.82;94983.79;1667473;83;27580;-83
2021/11/29 04:57:25;;;;;;;16.65;9.08;;;;;;;1.31;78.88;94983.38;1700009;83;25971;-82
2021/11/29 04:59:54;;;;;;;15.28;10.28;;;;;;;1.30;78.87;94989.71;1700186;83;25241;-83
2021/11/29 05:02:20;;;;;;;15.18;8.20;;;;;;;1.32;78.83;94987.15;1700194;83;26244;-83
2021/11/29 05:04:47;;;;;;;15.08;9.03;;;;;;;1.30;78.79;94991.04;1700217;83;26508;-82
2021/11/29 05:07:15;;;;;;;16.57;10.13;;;;;;;1.34;78.80;94990.89;1699740;83;27522;-83
2021/11/29 05:09:44;;;;;;;17.37;10.23;;;;;;;1.38;78.79;94994.77;1700090;83;25792;-82
2021/11/29 05:12:15;;;;;;;16.70;9.08;;;;;;;1.40;78.78;95006.01;1700074;83;25792;-82
2021/11/29 05:14:48;;;;;;;19.37;10.18;;;;;;;1.38;78.75;95013.38;1700276;83;26340;-82
2021/11/29 05:17:15;;;;;;;;;;;;;;;1.41;78.75;95006.31;1702699;83;25777;-83
2021/11/29 05:19:42;;;;;;;17.15;9.30;;;;;;;1.31;78.63;95007.29;1700190;84;27372;-82
2021/11/29 05:22:09;;;;;;;17.40;9.28;;;;;;;1.16;78.56;94992.95;1700047;83;25792;-82
2021/11/29 05:24:36;;;;;;;16.82;10.38;;;;;;;1.12;78.67;94992.23;1663471;84;25728;-83
2021/11/29 05:27:04;;;;;;;28.47;16.57;;;;;;;1.10;78.82;94993.77;1684959;84;26064;-83
2021/11/29 05:29:31;;;;;;;24.45;14.38;;;;;;;1.06;78.82;94988.09;1685019;84;25705;-82
2021/11/29 05:31:58;;;;;;;29.10;19.20;;;;;;;1.05;78.87;94999.73;1684854;84;28105;-82
2021/11/29 05:34:25;;;;;;;40.25;24.87;;;;;;;1.08;78.90;95003.31;1684722;83;25981;-82
2021/11/29 05:36:51;;;;;;;30.97;16.15;;;;;;;1.06;78.88;95009.86;1694641;82;25938;-82
2021/11/29 05:39:18;;;;;;;91.30;49.20;;;;;;;1.02;78.89;95008.13;1694530;82;26617;-82
2021/11/29 05:41:46;;;;;;;69.53;39.25;;;;;;;1.04;78.97;95018.03;1694783;82;25725;-82
2021/11/29 05:44:15;;;;;;;46.13;28.12;;;;;;;1.04;78.96;95022.53;1694594;82;27386;-82
2021/11/29 05:46:43;;;;;;;43.08;24.85;;;;;;;1.05;78.99;95031.63;1694642;82;25734;-82
2021/11/29 05:49:10;;;;;;;59.88;34.85;;;;;;;1.07;79.00;95040.20;1694621;82;25692;-83
2021/11/29 05:51:37;;;;;;;34.98;20.20;;;;;;;1.04;78.94;95037.14;1694289;82;26853;-83
2021/11/29 05:54:04;;;;;;;39.35;22.10;;;;;;;1.04;79.00;95048.58;1708306;82;25936;-82
2021/11/29 05:56:31;;;;;;;27.15;16.52;;;;;;;1.06;79.05;95054.51;1688580;83;27368;-83
2021/11/29 05:58:57;;;;;;;32.75;20.68;;;;;;;1.06;79.07;95059.83;1685962;83;25759;-82
2021/11/29 06:01:24;;;;;;;56.55;32.90;;;;;;;1.11;79.16;95052.53;1685911;85;26220;-82
2021/11/29 06:03:52;;;;;;;97.10;55.10;;;;;;;1.11;79.10;95049.06;1685992;84;25986;-82
2021/11/29 06:06:19;;;;;;;48.87;30.00;;;;;;;1.11;79.11;95050.38;1686143;83;25859;-82
2021/11/29 06:08:45;;;;;;;32.25;20.80;;;;;;;1.06;79.07;95049.20;1686123;84;27375;-82
2021/11/29 06:11:12;;;;;;;36.05;24.72;;;;;;;1.10;79.20;95048.23;1686019;85;25270;-82
2021/11/29 06:13:39;;;;;;;38.85;27.35;;;;;;;1.12;79.15;95045.38;1686175;83;26438;-83
2021/11/29 06:16:06;;;;;;;25.08;17.05;;;;;;;1.13;79.06;95044.35;1686110;85;26018;-82
2021/11/29 06:18:32;;;;;;;23.65;14.73;;;;;;;1.08;78.96;95045.82;1686246;85;25799;-83
2021/11/29 06:20:59;;;;;;;25.00;16.80;;;;;;;0.95;78.87;95040.55;1686145;83;27377;-83
2021/11/29 06:23:25;;;;;;;22.75;14.87;;;;;;;0.94;79.00;95045.55;1686070;85;25342;-82
2021/11/29 06:25:52;;;;;;;25.27;15.83;;;;;;;0.92;78.99;95052.09;1686266;85;25734;-83
2021/11/29 06:28:19;;;;;;;22.30;15.00;;;;;;;0.89;79.06;95059.14;1686110;85;26641;-83
2021/11/29 06:30:45;;;;;;;21.90;14.47;;;;;;;0.90;79.15;95073.55;1686061;83;25597;-83
2021/11/29 06:33:12;;;;;;;30.35;15.72;;;;;;;0.94;79.21;95074.77;1686147;83;27338;-83
2021/11/29 06:35:38;;;;;;;40.23;21.68;;;;;;;0.97;79.18;95076.98;1686090;83;25821;-83
2021/11/29 06:38:07;;;;;;;48.20;26.07;;;;;;;0.97;79.14;95082.30;1686245;85;25758;-83
2021/11/29 06:40:34;;;;;;;41.77;21.82;;;;;;;1.00;79.16;95085.06;1686153;83;26162;-83
2021/11/29 06:43:01;;;;;;;35.03;21.93;;;;;;;1.02;79.16;95090.48;1686077;83;25299;-83
2021/11/29 06:45:28;;;;;;;32.28;19.05;;;;;;;1.04;79.19;95092.42;1686048;83;27431;-83
2021/11/29 06:47:55;;;;;;;28.65;16.85;;;;;;;1.08;79.17;95087.52;1686039;83;26488;-84
2021/11/29 06:50:23;;;;;;;24.77;14.15;;;;;;;1.08;79.10;95093.64;1685839;85;25277;-83
2021/11/29 06:52:50;;;;;;;26.30;15.55;;;;;;;1.04;78.96;95093.75;1686278;85;26067;-83
2021/11/29 06:55:19;;;;;;;27.82;15.10;;;;;;;1.00;79.02;95100.49;1665932;84;26006;-83
2021/11/29 06:57:45;;;;;;;23.18;14.28;;;;;;;1.04;79.10;95096.91;1694438;82;27553;-84
2021/11/29 07:00:16;;;;;;;25.43;14.60;;;;;;;1.00;78.99;95097.02;1694463;82;25841;-84
2021/11/29 07:02:43;;;;;;;26.23;15.15;;;;;;;1.00;79.08;95108.46;1694714;82;25737;-84
2021/11/29 07:05:11;;;;;;;29.20;17.45;;;;;;;1.04;79.15;95116.84;1694658;82;25926;-84
2021/11/29 07:07:37;;;;;;;29.00;17.20;;;;;;;1.08;79.12;95124.71;1694624;82;25670;-83
2021/11/29 07:10:06;;;;;;;22.98;13.40;;;;;;;1.13;79.09;95122.73;1694504;82;27366;-84
2021/11/29 07:12:36;;;;;;;24.92;14.33;;;;;;;1.15;79.01;95123.35;1694535;82;25701;-84
2021/11/29 07:15:05;;;;;;;27.85;15.95;;;;;;;1.09;78.89;95117.83;1694217;82;25252;-84
2021/11/29 07:17:32;;;;;;;189.85;75.28;;;;;;;1.06;78.91;95114.80;1694585;82;26001;-84
2021/11/29 07:19:59;;;;;;;145.40;58.13;;;;;;;1.05;78.99;95104.68;1694710;82;26344;-84
2021/11/29 07:22:25;;;;;;;62.30;29.18;;;;;;;0.99;78.96;95108.16;1694557;82;27445;-84
2021/11/29 07:24:53;;;;;;;48.10;22.07;;;;;;;1.00;79.06;95113.77;1694361;82;25696;-84
2021/11/29 07:27:22;;;;;;;36.95;20.32;;;;;;;1.02;79.15;95109.59;1694534;82;25855;-84
2021/11/29 07:29:53;;;;;;;36.42;19.92;;;;;;;1.08;79.15;95117.56;1694532;82;26158;-84
2021/11/29 07:32:23;;;;;;;45.10;22.15;;;;;;;1.07;79.07;95111.94;1694601;82;25698;-84
2021/11/29 07:34:50;;;;;;;43.13;21.55;;;;;;;1.05;79.08;95114.49;1694667;82;27433;-84
2021/11/29 07:37:18;;;;;;;42.90;22.70;;;;;;;1.00;79.02;95111.12;1694031;82;27493;-84
2021/11/29 07:39:46;;;;;;;40.30;20.55;;;;;;;0.98;79.08;95106.52;1694560;83;26634;-84
2021/11/29 07:42:15;;;;;;;35.63;19.87;;;;;;;1.00;79.23;95113.77;1694407;82;26500;-85
2021/11/29 07:44:43;;;;;;;40.23;20.40;;;;;;;1.05;79.25;95117.97;1694581;82;25757;-84
2021/11/29 07:47:09;;;;;;;37.70;20.20;;;;;;;1.06;79.26;95116.95;1694577;82;27384;-84
2021/11/29 07:49:36;;;;;;;39.23;23.25;;;;;;;1.12;79.26;95118.45;1694369;82;25758;-84
2021/11/29 07:52:03;;;;;;;45.38;23.15;;;;;;;1.17;79.23;95118.65;1694544;82;25774;-84
2021/11/29 07:54:30;;;;;;;49.23;26.82;;;;;;;1.19;79.18;95127.23;1705013;82;26026;-83
2021/11/29 07:56:56;;;;;;;55.78;31.15;;;;;;;1.24;79.19;95134.05;1720432;81;25725;-83
2021/11/29 07:59:23;;;;;;;59.03;30.77;;;;;;;1.27;79.13;95138.95;1720478;81;27564;-83
2021/11/29 08:01:49;;;;;;;47.00;27.73;;;;;;;1.27;79.04;95148.26;1720271;81;25756;-84
2021/11/29 08:04:16;;;;;;;46.42;25.57;;;;;;;1.25;79.05;95139.67;1720413;81;25731;-83
2021/11/29 08:06:42;;;;;;;35.73;20.55;;;;;;;1.25;79.09;95148.98;1720500;81;25992;-84
2021/11/29 08:09:09;;;;;;;32.08;18.73;;;;;;;1.31;79.12;95145.50;1720533;81;25845;-84
2021/11/29 08:11:36;;;;;;;32.58;17.57;;;;;;;1.35;79.05;95156.00;1720423;82;27359;-84
2021/11/29 08:14:03;;;;;;;29.05;17.77;;;;;;;1.38;78.98;95160.91;1688519;83;25739;-84
2021/11/29 08:16:29;;;;;;;25.45;15.00;;;;;;;1.39;78.89;95151.39;1686106;83;25362;-84
2021/11/29 08:18:56;;;;;;;22.67;14.65;;;;;;;1.40;78.77;95154.88;1686001;83;25972;-84
2021/11/29 08:21:22;;;;;;;25.88;14.70;;;;;;;1.41;78.72;95156.51;1686082;83;25760;-84
2021/11/29 08:23:49;;;;;;;24.72;13.70;;;;;;;1.40;78.65;95156.20;1686059;83;27409;-84
2021/11/29 08:26:15;;;;;;;21.33;13.30;;;;;;;1.41;78.73;95158.66;1685881;83;25919;-84
2021/11/29 08:28:42;;;;;;;24.65;14.25;;;;;;;1.44;78.66;95144.95;1686228;83;25736;-84
2021/11/29 08:31:08;;;;;;;24.50;15.83;;;;;;;1.44;78.59;95146.79;1686185;85;26914;-84
2021/11/29 08:33:35;;;;;;;33.33;17.98;;;;;;;1.42;78.57;95154.16;1686173;83;25772;-84
2021/11/29 08:36:03;;;;;;;45.05;25.55;;;;;;;1.42;78.61;95166.11;1685891;83;28168;-84
2021/11/29 08:38:29;;;;;;;62.15;33.83;;;;;;;1.46;78.58;95165.98;1686165;83;25746;-84
2021/11/29 08:40:56;;;;;;;35.23;20.23;;;;;;;1.43;78.43;95169.08;1686136;83;25875;-84
2021/11/29 08:43:23;;;;;;;30.68;18.70;;;;;;;1.37;78.41;95164.58;1685975;84;26534;-84
2021/11/29 08:45:52;;;;;;;29.87;17.05;;;;;;;1.37;78.44;95167.24;1686306;83;25791;-83
2021/11/29 08:48:20;;;;;;;25.17;15.00;;;;;;;1.36;78.51;95170.92;1686223;83;28197;-84
2021/11/29 08:50:49;;;;;;;28.92;16.67;;;;;;;1.39;78.56;95171.84;1686036;83;26457;-84
2021/11/29 08:53:21;;;;;;;28.25;16.80;;;;;;;1.39;78.46;95173.98;1686158;85;25753;-84
2021/11/29 08:55:48;;;;;;;25.93;14.77;;;;;;;1.40;78.50;95174.81;1668223;84;26795;-84
2021/11/29 08:58:15;;;;;;;24.72;14.10;;;;;;;1.41;78.47;95180.43;1684985;83;25755;-84
2021/11/29 09:00:45;;;;;;;22.73;13.68;;;;;;;1.41;78.41;95172.45;1694685;82;27417;-84
2021/11/29 09:03:12;;;;;;;23.15;14.10;;;;;;;1.42;78.45;95186.05;1694536;82;26473;-84
2021/11/29 09:05:44;;;;;;;25.50;15.68;;;;;;;1.45;78.41;95185.61;1694630;82;25773;-84
2021/11/29 09:08:12;;;;;;;25.00;15.38;;;;;;;1.48;78.36;95186.53;1694836;82;26854;-84
2021/11/29 09:10:41;;;;;;;27.00;14.98;;;;;;;1.49;78.26;95185.52;1694671;82;25798;-83
2021/11/29 09:13:08;;;;;;;24.92;14.90;;;;;;;1.51;78.23;95188.78;1694666;82;28187;-84
2021/11/29 09:15:37;;;;;;;60.23;24.85;;;;;;;1.48;78.12;95183.87;1694593;82;25875;-83
2021/11/29 09:18:04;;;;;;;120.47;45.38;;;;;;;1.44;78.14;95182.68;1694598;82;25466;-84
2021/11/29 09:20:30;;;;;;;75.87;34.65;;;;;;;1.45;78.15;95191.75;1694573;82;25989;-83
2021/11/29 09:22:58;;;;;;;63.00;30.30;;;;;;;1.42;78.08;95186.88;1694645;82;25717;-83
2021/11/29 09:25:26;;;;;;;49.50;27.02;;;;;;;1.37;78.10;95180.53;1694688;82;27406;-83
2021/11/29 09:27:53;;;;;;;37.50;21.48;;;;;;;1.38;78.20;95183.50;1694570;82;25749;-83
2021/11/29 09:30:20;;;;;;;29.23;16.97;;;;;;;1.39;78.27;95181.14;1694585;83;25782;-84
2021/11/29 09:32:48;;;;;;;25.97;15.45;;;;;;;1.43;78.32;95177.06;1694441;82;26062;-83
2021/11/29 09:35:17;;;;;;;25.95;16.77;;;;;;;1.47;78.22;95178.77;1694620;82;25885;-84
2021/11/29 09:37:45;;;;;;;27.07;16.07;;;;;;;1.50;78.22;95179.68;1694583;82;27455;-84
2021/11/29 09:40:17;;;;;;;31.97;18.55;;;;;;;1.51;78.19;95189.30;1694660;82;25754;-83
2021/11/29 09:42:44;;;;;;;43.25;23.15;;;;;;;1.45;78.13;95191.75;1694490;82;32708;-84
2021/11/29 09:45:12;;;;;;;53.28;29.42;;;;;;;1.42;78.10;95185.55;1694665;83;26447;-83
2021/11/29 09:47:40;;;;;;;68.37;33.95;;;;;;;1.35;78.11;95189.22;1694567;82;25758;-84
2021/11/29 09:50:09;;;;;;;98.03;43.55;;;;;;;1.37;78.26;95191.16;1694540;82;27379;-84
2021/11/29 09:52:35;;;;;;;78.10;38.35;;;;;;;1.41;78.31;95196.38;1694582;82;26024;-84
2021/11/29 09:55:03;;;;;;;48.63;26.55;;;;;;;1.44;78.33;95190.14;1703153;82;25729;-83
2021/11/29 09:57:30;;;;;;;64.92;34.10;;;;;;;1.49;78.34;95187.35;1720641;81;26194;-84
2021/11/29 09:59:58;;;;;;;68.15;35.40;;;;;;;1.47;78.29;95190.73;1667455;83;25818;-85
2021/11/29 10:02:24;;;;;;;72.97;38.70;;;;;;;1.46;78.34;95188.58;1686087;83;27352;-84
2021/11/29 10:04:51;;;;;;;45.83;28.50;;;;;;;1.45;78.38;95189.60;1686106;83;25833;-84
2021/11/29 10:07:37;;;;;;;33.05;20.23;;;;;;;1.47;78.41;95190.22;1686159;83;25921;-84
2021/11/29 10:10:25;;;;;;;30.60;18.05;;;;;;;1.52;78.24;95186.94;1685346;83;26062;-84
2021/11/29 10:13:02;;;;;;;30.82;18.02;;;;;;;1.54;78.28;95189.70;1685992;85;25683;-83
2021/11/29 10:15:39;;;;;;;27.67;17.48;;;;;;;1.52;78.14;95189.09;1684700;85;27397;-81
2021/11/29 10:18:25;;;;;;;34.43;18.98;;;;;;;1.49;78.22;95192.16;1685997;85;26238;-83
2021/11/29 10:21:08;;;;;;;33.80;19.37;;;;;;;1.51;78.26;95190.11;1686149;83;25743;-83
2021/11/29 10:23:47;;;;;;;36.30;20.48;;;;;;;1.54;78.19;95189.70;1686187;83;26097;-83
2021/11/29 10:26:28;;;;;;;41.42;22.77;;;;;;;1.60;78.05;95190.69;1686247;83;25796;-82
2021/11/29 10:29:02;;;;;;;51.15;26.07;;;;;;;1.58;77.92;95193.55;1686118;85;28549;-82
2021/11/29 10:31:38;;;;;;;41.60;22.07;;;;;;;1.54;77.88;95188.38;1686037;83;25325;-82
2021/11/29 10:34:16;;;;;;;28.47;16.55;;;;;;;1.44;77.95;95193.31;1686181;83;25764;-82
2021/11/29 10:36:53;;;;;;;30.12;16.48;;;;;;;1.44;77.96;95197.30;1686022;83;26172;-82
2021/11/29 10:39:25;;;;;;;27.77;17.20;;;;;;;1.39;77.97;95195.77;1686094;84;25763;-82
2021/11/29 10:41:59;;;;;;;39.15;21.65;;;;;;;1.38;78.12;95192.80;1686381;84;27449;-82
2021/11/29 10:44:32;;;;;;;45.65;24.35;;;;;;;1.44;78.18;95199.96;1686066;84;25802;-82
2021/11/29 10:47:04;;;;;;;55.17;29.07;;;;;;;1.45;78.11;95193.59;1686087;83;26355;-82
2021/11/29 10:49:38;;;;;;;45.70;27.40;;;;;;;1.37;78.04;95196.48;1686047;85;26966;-82
2021/11/29 10:52:07;;;;;;;41.73;24.85;;;;;;;1.39;78.16;95191.78;1686098;83;25733;-82
2021/11/29 10:54:40;;;;;;;43.65;23.80;;;;;;;1.38;78.04;95187.48;1686151;83;26813;-82
2021/11/29 10:57:12;;;;;;;39.83;23.77;;;;;;;1.40;78.05;95191.58;1685948;83;25640;-83
2021/11/29 10:59:41;;;;;;;43.35;23.73;;;;;;;1.40;78.01;95198.73;1686127;83;25814;-82
2021/11/29 11:02:15;;;;;;;38.92;20.82;;;;;;;1.41;78.01;95201.70;1686140;83;26818;-83
2021/11/29 11:04:45;;;;;;;29.63;17.52;;;;;;;1.40;78.01;95205.38;1686001;83;25780;-83
2021/11/29 11:07:25;;;;;;;29.98;18.02;;;;;;;1.34;77.92;95196.89;1686122;83;27533;-83
2021/11/29 11:09:56;;;;;;;28.30;16.23;;;;;;;1.32;77.95;95203.77;1662932;83;25798;-83
2021/11/29 11:12:27;;;;;;;27.05;17.30;;;;;;;1.34;78.04;95208.85;1686295;84;25318;-83
2021/11/29 11:15:00;;;;;;;31.82;18.10;;;;;;;1.33;78.03;95205.88;1686058;84;26034;-83
2021/11/29 11:17:31;;;;;;;27.42;16.73;;;;;;;1.31;78.04;95206.13;1686144;85;25800;-82
2021/11/29 11:20:09;;;;;;;32.83;20.10;;;;;;;1.25;78.53;95212.76;1686241;83;27443;-83
2021/11/29 11:22:44;;;;;;;30.00;19.02;;;;;;;1.16;78.42;95219.32;1685970;83;25731;-82
2021/11/29 11:25:15;;;;;;;31.35;18.27;;;;;;;1.12;78.43;95219.41;1686074;85;25774;-82
2021/11/29 11:27:55;;;;;;;29.42;19.23;;;;;;;1.09;78.40;95220.64;1686092;85;25985;-83
2021/11/29 11:30:23;;;;;;;45.33;23.83;;;;;;;1.08;78.41;95233.13;1685508;83;25889;-82
2021/11/29 11:32:58;;;;;;;38.70;23.38;;;;;;;1.08;78.34;95225.67;1686104;85;28183;-83
2021/11/29 11:35:29;;;;;;;45.10;24.52;;;;;;;1.08;78.33;95238.96;1685930;85;25869;-82